createdAt,value
2018-02-02T00:02:07.924Z,84.90
2018-02-02T00:04:35.550Z,84.90
2018-02-02T00:07:03.206Z,85.40
2018-02-02T00:09:30.836Z,85.80
2018-02-02T00:11:58.421Z,85.10
2018-02-02T00:14:26.045Z,85.30
2018-02-02T00:16:53.607Z,84.10
2018-02-02T00:19:21.223Z,84.10
2018-02-02T00:21:48.839Z,83.80
2018-02-02T00:24:16.409Z,85.40
2018-02-02T00:26:44.023Z,86.70
2018-02-02T00:29:11.646Z,88.40
2018-02-02T00:31:39.273Z,88.60
2018-02-02T00:34:06.842Z,89.80
2018-02-02T00:36:34.426Z,89.80
2018-02-02T00:39:01.995Z,89.10
2018-02-02T00:41:29.584Z,88.80
2018-02-02T00:43:57.180Z,89.40
2018-02-02T00:46:24.746Z,87.80
2018-02-02T00:48:52.330Z,88.30
2018-02-02T00:51:35.635Z,88.30
2018-02-02T00:54:03.196Z,87.30
2018-02-02T00:56:30.801Z,87.20
2018-02-02T00:58:58.448Z,87.70
2018-02-02T01:01:26.034Z,89.00
2018-02-02T01:03:53.641Z,87.80
2018-02-02T01:06:21.243Z,89.10
2018-02-02T01:08:48.844Z,89.00
2018-02-02T01:11:16.411Z,89.70
2018-02-02T01:13:43.975Z,88.20
2018-02-02T01:16:11.602Z,88.80
2018-02-02T01:18:39.994Z,87.60
2018-02-02T01:21:08.322Z,87.20
2018-02-02T01:23:35.934Z,87.10
2018-02-02T01:26:03.534Z,85.60
2018-02-02T01:28:31.154Z,84.70
2018-02-02T01:30:58.772Z,83.40
2018-02-02T01:33:26.408Z,83.20
2018-02-02T01:35:54.010Z,82.70
2018-02-02T01:38:21.632Z,82.40
2018-02-02T01:40:49.202Z,82.10
2018-02-02T01:43:16.805Z,81.90
2018-02-02T01:45:44.386Z,81.80
2018-02-02T01:48:20.850Z,81.10
2018-02-02T01:50:50.135Z,80.80
2018-02-02T01:53:17.772Z,80.50
2018-02-02T01:55:45.392Z,80.20
2018-02-02T01:58:20.738Z,79.80
2018-02-02T02:00:48.297Z,80.10
2018-02-02T02:03:15.928Z,79.40
2018-02-02T02:05:44.329Z,79.50
2018-02-02T02:08:11.964Z,79.40
2018-02-02T02:10:40.308Z,79.00
2018-02-02T02:13:07.935Z,79.00
2018-02-02T02:15:35.547Z,79.10
2018-02-02T02:18:03.139Z,78.50
2018-02-02T02:20:30.763Z,77.70
2018-02-02T02:22:58.367Z,76.60
2018-02-02T02:25:25.963Z,76.90
2018-02-02T02:27:53.559Z,75.80
2018-02-02T02:30:21.967Z,76.10
2018-02-02T02:32:49.598Z,76.00
2018-02-02T02:35:18.009Z,74.50
2018-02-02T02:37:45.665Z,74.40
2018-02-02T02:40:13.293Z,73.70
2018-02-02T02:42:40.919Z,71.30
2018-02-02T02:45:08.535Z,69.90
2018-02-02T02:47:36.127Z,69.40
2018-02-02T02:50:03.760Z,69.30
2018-02-02T02:52:31.340Z,69.70
2018-02-02T02:54:58.966Z,67.70
2018-02-02T02:57:27.350Z,68.30
2018-02-02T02:59:55.712Z,69.50
2018-02-02T03:02:23.335Z,69.50
2018-02-02T03:04:50.956Z,70.30
2018-02-02T03:07:18.591Z,71.70
2018-02-02T03:09:46.159Z,74.20
2018-02-02T03:12:14.523Z,78.10
2018-02-02T03:14:42.135Z,78.00
2018-02-02T03:17:09.719Z,79.20
2018-02-02T03:19:37.300Z,79.90
2018-02-02T03:22:04.914Z,80.30
2018-02-02T03:24:32.475Z,80.10
2018-02-02T03:27:00.074Z,80.30
2018-02-02T03:29:27.658Z,80.10
2018-02-02T03:31:56.059Z,80.90
2018-02-02T03:34:23.650Z,80.80
2018-02-02T03:36:51.275Z,80.90
2018-02-02T03:39:18.859Z,80.20
2018-02-02T03:41:46.499Z,82.00
2018-02-02T03:44:14.066Z,81.50
2018-02-02T03:46:41.673Z,81.10
2018-02-02T03:49:09.263Z,81.30
2018-02-02T03:51:37.646Z,82.10
2018-02-02T03:54:05.239Z,82.00
2018-02-02T03:56:32.843Z,82.20
2018-02-02T03:59:00.486Z,82.80
2018-02-02T04:01:28.127Z,84.10
2018-02-02T04:03:55.740Z,84.50
2018-02-02T04:06:24.103Z,83.50
2018-02-02T04:08:51.752Z,83.50
2018-02-02T04:11:19.385Z,84.00
2018-02-02T04:13:46.940Z,84.20
2018-02-02T04:16:14.535Z,84.50
2018-02-02T04:18:42.118Z,84.10
2018-02-02T04:21:10.470Z,83.20
2018-02-02T04:23:38.081Z,83.10
2018-02-02T04:26:05.683Z,83.30
2018-02-02T04:28:33.330Z,82.50
2018-02-02T04:31:00.891Z,82.60
2018-02-02T04:33:28.484Z,82.90
2018-02-02T04:36:02.371Z,82.60
2018-02-02T04:38:30.035Z,82.60
2018-02-02T04:40:57.643Z,82.20
2018-02-02T04:43:25.242Z,80.30
2018-02-02T04:45:52.888Z,78.90
2018-02-02T04:48:20.454Z,77.50
2018-02-02T04:50:48.050Z,75.20
2018-02-02T04:53:15.670Z,76.00
2018-02-02T04:55:43.294Z,74.90
2018-02-02T04:58:11.673Z,71.50
2018-02-02T05:00:40.040Z,70.10
2018-02-02T05:03:08.378Z,69.90
2018-02-02T05:05:35.999Z,69.70
2018-02-02T05:08:03.563Z,69.30
2018-02-02T05:10:31.170Z,69.90
2018-02-02T05:12:58.787Z,68.90
2018-02-02T05:15:26.343Z,69.20
2018-02-02T05:17:53.926Z,67.40
2018-02-02T05:20:21.515Z,67.40
2018-02-02T05:22:49.095Z,68.50
2018-02-02T05:25:17.446Z,66.80
2018-02-02T05:27:45.071Z,66.70
2018-02-02T05:30:12.654Z,66.10
2018-02-02T05:32:40.283Z,67.40
2018-02-02T05:35:07.850Z,67.70
2018-02-02T05:37:35.445Z,68.20
2018-02-02T05:40:03.054Z,70.30
2018-02-02T05:42:30.668Z,71.50
2018-02-02T05:44:59.138Z,72.60
2018-02-02T05:47:26.722Z,74.10
2018-02-02T05:49:54.352Z,76.20
2018-02-02T05:52:21.983Z,77.20
2018-02-02T05:54:49.545Z,78.50
2018-02-02T05:57:17.173Z,78.50
2018-02-02T05:59:44.786Z,79.90
2018-02-02T06:02:12.383Z,81.90
2018-02-02T06:04:40.020Z,81.80
2018-02-02T06:07:07.612Z,80.90
2018-02-02T06:09:35.208Z,80.60
2018-02-02T06:12:02.850Z,81.00
2018-02-02T06:14:31.226Z,82.80
2018-02-02T06:16:59.595Z,83.60
2018-02-02T06:19:36.760Z,83.20
2018-02-02T06:22:04.331Z,83.10
2018-02-02T06:24:32.707Z,83.70
2018-02-02T06:27:00.298Z,83.10
2018-02-02T06:29:27.894Z,83.00
2018-02-02T06:31:55.496Z,81.70
2018-02-02T06:34:23.156Z,80.50
2018-02-02T06:36:50.716Z,78.90
2018-02-02T06:39:18.326Z,78.50
2018-02-02T06:41:45.980Z,77.70
2018-02-02T06:44:13.612Z,76.30
2018-02-02T06:46:41.245Z,75.30
2018-02-02T06:49:08.836Z,75.40
2018-02-02T06:51:37.285Z,75.50
2018-02-02T06:54:04.915Z,75.50
2018-02-02T06:56:32.488Z,76.20
2018-02-02T06:59:00.134Z,76.30
2018-02-02T07:01:27.738Z,75.90
2018-02-02T07:03:55.334Z,74.90
2018-02-02T07:06:22.934Z,74.10
2018-02-02T07:08:50.524Z,72.20
2018-02-02T07:11:18.911Z,70.80
2018-02-02T07:13:47.230Z,69.80
2018-02-02T07:16:14.828Z,69.80
2018-02-02T07:18:42.418Z,69.40
2018-02-02T07:21:10.032Z,68.80
2018-02-02T07:23:37.661Z,68.70
2018-02-02T07:26:06.370Z,68.50
2018-02-02T07:28:34.016Z,68.30
2018-02-02T07:31:01.671Z,67.60
2018-02-02T07:33:29.284Z,66.30
2018-02-02T07:35:56.856Z,65.90
2018-02-02T07:38:25.210Z,65.40
2018-02-02T07:40:52.816Z,65.30
2018-02-02T07:43:20.398Z,64.60
2018-02-02T07:45:48.001Z,64.90
2018-02-02T07:48:15.651Z,64.90
2018-02-02T07:50:43.209Z,64.70
2018-02-02T07:53:10.779Z,64.20
2018-02-02T07:55:38.374Z,64.20
2018-02-02T07:58:05.952Z,64.00
2018-02-02T08:00:39.122Z,64.00
2018-02-02T08:03:06.699Z,63.80
2018-02-02T08:05:34.276Z,63.60
2018-02-02T08:08:01.874Z,63.20
2018-02-02T08:10:29.514Z,62.90
2018-02-02T08:12:57.102Z,63.30
2018-02-02T08:15:25.477Z,62.70
2018-02-02T08:17:53.063Z,62.60
2018-02-02T08:20:20.638Z,62.70
2018-02-02T08:22:48.231Z,61.70
2018-02-02T08:25:15.809Z,61.60
2018-02-02T08:27:43.426Z,60.90
2018-02-02T08:30:11.766Z,58.50
2018-02-02T08:32:40.147Z,58.40
2018-02-02T08:35:08.491Z,58.40
2018-02-02T08:37:36.063Z,58.30
2018-02-02T08:40:03.669Z,58.60
2018-02-02T08:42:31.264Z,58.10
2018-02-02T08:44:58.886Z,56.30
2018-02-02T08:47:26.465Z,55.50
2018-02-02T08:49:54.132Z,53.60
2018-02-02T08:52:21.698Z,51.70
2018-02-02T08:54:49.298Z,49.80
2018-02-02T08:57:17.653Z,48.90
2018-02-02T08:59:45.266Z,48.90
2018-02-02T09:02:12.845Z,49.00
2018-02-02T09:04:40.447Z,48.40
2018-02-02T09:07:08.044Z,47.60
2018-02-02T09:09:35.640Z,48.20
2018-02-02T09:12:03.247Z,46.50
2018-02-02T09:14:30.822Z,46.50
2018-02-02T09:16:58.387Z,47.50
2018-02-02T09:19:25.996Z,46.90
2018-02-02T09:21:53.077Z,47.50
2018-02-02T09:24:20.674Z,48.00
2018-02-02T09:26:48.271Z,45.70
2018-02-02T09:29:16.616Z,41.80
2018-02-02T09:31:44.202Z,41.10
2018-02-02T09:34:11.790Z,41.30
2018-02-02T09:36:40.184Z,41.70
2018-02-02T09:39:07.746Z,41.70
2018-02-02T09:41:35.315Z,41.50
2018-02-02T09:44:03.659Z,41.20
2018-02-02T09:46:32.017Z,43.00
2018-02-02T09:48:59.652Z,43.00
2018-02-02T09:51:27.223Z,42.00
2018-02-02T09:53:54.825Z,41.10
2018-02-02T09:56:22.431Z,42.90
2018-02-02T09:58:50.026Z,43.60
2018-02-02T10:01:18.413Z,42.90
2018-02-02T10:03:46.801Z,40.90
2018-02-02T10:06:15.196Z,40.70
2018-02-02T10:08:42.830Z,40.70
2018-02-02T10:11:11.215Z,42.40
2018-02-02T10:13:39.518Z,44.90
2018-02-02T10:16:14.591Z,44.90
2018-02-02T10:18:42.142Z,44.60
2018-02-02T10:21:09.717Z,46.20
2018-02-02T10:23:37.347Z,48.40
2018-02-02T10:26:04.967Z,49.60
2018-02-02T10:28:33.301Z,51.20
2018-02-02T10:31:00.901Z,51.20
2018-02-02T10:33:29.249Z,51.30
2018-02-02T10:35:56.858Z,51.20
2018-02-02T10:38:24.481Z,51.40
2018-02-02T10:40:52.048Z,52.70
2018-02-02T10:43:19.689Z,51.80
2018-02-02T10:45:47.223Z,53.00
2018-02-02T10:48:14.814Z,51.80
2018-02-02T10:50:42.401Z,51.80
2018-02-02T10:53:10.820Z,52.00
2018-02-02T10:55:38.403Z,52.00
2018-02-02T10:58:05.950Z,52.60
2018-02-02T11:00:39.141Z,51.90
2018-02-02T11:03:12.313Z,51.90
2018-02-02T11:05:39.908Z,50.90
2018-02-02T11:08:07.502Z,51.30
2018-02-02T11:10:35.850Z,52.00
2018-02-02T11:13:03.463Z,51.90
2018-02-02T11:15:31.107Z,51.80
2018-02-02T11:17:59.434Z,52.90
2018-02-02T11:20:27.051Z,52.70
2018-02-02T11:22:54.698Z,52.70
2018-02-02T11:25:23.062Z,53.20
2018-02-02T11:27:50.687Z,53.20
2018-02-02T11:30:18.326Z,52.90
2018-02-02T11:32:45.910Z,52.20
2018-02-02T11:35:13.515Z,52.90
2018-02-02T11:37:41.920Z,52.40
2018-02-02T11:40:09.478Z,52.30
2018-02-02T11:42:37.107Z,52.60
2018-02-02T11:45:04.726Z,52.60
2018-02-02T11:47:32.267Z,52.70
2018-02-02T11:49:59.854Z,52.70
2018-02-02T11:52:27.451Z,51.20
2018-02-02T11:54:55.843Z,51.70
2018-02-02T11:57:23.455Z,51.70
2018-02-02T11:59:51.016Z,52.40
2018-02-02T12:02:18.633Z,52.90
2018-02-02T12:04:46.224Z,53.00
2018-02-02T12:07:13.814Z,52.90
2018-02-02T12:09:41.393Z,52.60
2018-02-02T12:12:09.764Z,53.10
2018-02-02T12:14:37.346Z,53.00
2018-02-02T12:17:04.933Z,52.70
2018-02-02T12:19:32.502Z,52.50
2018-02-02T12:22:05.714Z,52.50
2018-02-02T12:24:34.960Z,52.50
2018-02-02T12:27:03.152Z,52.10
2018-02-02T12:29:32.648Z,52.20
2018-02-02T12:32:02.861Z,51.10
2018-02-02T12:34:33.124Z,51.80
2018-02-02T12:37:00.732Z,51.80
2018-02-02T12:39:29.173Z,52.30
2018-02-02T12:41:56.746Z,52.30
2018-02-02T12:44:24.342Z,51.90
2018-02-02T12:46:51.933Z,51.60
2018-02-02T12:49:19.511Z,51.70
2018-02-02T12:51:47.130Z,51.90
2018-02-02T12:54:14.775Z,51.80
2018-02-02T12:56:43.190Z,51.80
2018-02-02T12:59:10.783Z,51.80
2018-02-02T13:01:50.887Z,52.30
2018-02-02T13:04:18.484Z,52.90
2018-02-02T13:06:46.067Z,52.70
2018-02-02T13:09:13.660Z,52.80
2018-02-02T13:11:41.248Z,53.50
2018-02-02T13:14:08.827Z,52.90
2018-02-02T13:16:36.458Z,53.20
2018-02-02T13:19:04.035Z,53.30
2018-02-02T13:21:31.587Z,54.40
2018-02-02T13:23:59.186Z,53.70
2018-02-02T13:26:26.781Z,53.40
2018-02-02T13:28:54.359Z,53.20
2018-02-02T13:31:21.966Z,53.40
2018-02-02T13:33:49.583Z,53.80
2018-02-02T13:36:17.179Z,53.50
2018-02-02T13:38:44.774Z,54.40
2018-02-02T13:41:12.330Z,53.90
2018-02-02T13:43:39.971Z,54.20
2018-02-02T13:46:08.299Z,53.70
2018-02-02T13:48:35.860Z,53.60
2018-02-02T13:51:03.463Z,53.20
2018-02-02T13:53:31.069Z,53.40
2018-02-02T13:55:58.619Z,53.20
2018-02-02T13:58:26.206Z,55.00
2018-02-02T14:00:53.840Z,53.80
2018-02-02T14:03:21.418Z,53.90
2018-02-02T14:05:49.004Z,53.80
2018-02-02T14:08:16.608Z,54.20
2018-02-02T14:10:44.171Z,55.00
2018-02-02T14:13:11.756Z,55.40
2018-02-02T14:15:39.384Z,55.60
2018-02-02T14:18:07.734Z,56.50
2018-02-02T14:20:46.405Z,56.40
2018-02-02T14:23:13.955Z,56.70
2018-02-02T14:25:41.561Z,55.80
2018-02-02T14:28:09.195Z,56.00
2018-02-02T14:30:36.781Z,56.00
2018-02-02T14:33:04.380Z,56.30
2018-02-02T14:35:32.740Z,56.70
2018-02-02T14:38:00.330Z,57.20
2018-02-02T14:40:29.846Z,57.20
2018-02-02T14:42:57.624Z,57.80
2018-02-02T14:45:25.291Z,58.40
2018-02-02T14:47:54.817Z,58.10
2018-02-02T14:50:22.448Z,58.50
2018-02-02T14:52:50.050Z,58.60
2018-02-02T14:55:17.659Z,58.50
2018-02-02T14:57:45.260Z,58.90
2018-02-02T15:00:12.848Z,58.40
2018-02-02T15:02:42.391Z,58.90
2018-02-02T15:05:10.001Z,58.80
2018-02-02T15:07:37.630Z,59.10
2018-02-02T15:10:08.520Z,59.30
2018-02-02T15:12:36.167Z,59.50
2018-02-02T15:15:03.762Z,60.10
2018-02-02T15:17:31.377Z,60.60
2018-02-02T15:19:58.978Z,60.50
2018-02-02T15:22:27.479Z,62.00
2018-02-02T15:24:55.078Z,61.40
2018-02-02T15:27:22.704Z,62.30
2018-02-02T15:29:50.288Z,62.20
2018-02-02T15:32:17.869Z,62.50
2018-02-02T15:34:45.465Z,62.30
2018-02-02T15:37:13.079Z,61.90
2018-02-02T15:39:40.700Z,62.60
2018-02-02T15:42:08.318Z,62.70
2018-02-02T15:44:36.681Z,62.30
2018-02-02T15:47:04.300Z,62.20
2018-02-02T15:49:31.922Z,61.50
2018-02-02T15:52:00.370Z,62.50
2018-02-02T15:54:27.994Z,62.50
2018-02-02T15:56:55.627Z,62.90
2018-02-02T15:59:23.989Z,62.50
2018-02-02T16:01:52.330Z,62.50
2018-02-02T16:04:19.939Z,62.40
2018-02-02T16:06:49.470Z,62.80
2018-02-02T16:09:17.077Z,62.80
2018-02-02T16:11:44.666Z,62.90
2018-02-02T16:14:13.025Z,62.50
2018-02-02T16:16:40.915Z,62.50
2018-02-02T16:19:08.567Z,62.00
2018-02-02T16:21:36.943Z,62.40
2018-02-02T16:24:10.300Z,62.80
2018-02-02T16:26:37.882Z,62.80
2018-02-02T16:29:06.432Z,62.60
2018-02-02T16:31:33.994Z,62.70
2018-02-02T16:34:01.598Z,63.20
2018-02-02T16:36:29.931Z,63.00
2018-02-02T16:38:59.513Z,62.80
2018-02-02T16:41:27.116Z,62.90
2018-02-02T16:43:54.747Z,62.90
2018-02-02T16:46:22.330Z,62.70
2018-02-02T16:48:49.969Z,63.00
2018-02-02T16:51:17.540Z,63.00
2018-02-02T16:53:45.125Z,62.90
2018-02-02T16:56:12.688Z,63.30
2018-02-02T16:58:42.773Z,63.30
2018-02-02T17:01:10.415Z,63.40
2018-02-02T17:03:38.009Z,63.50
2018-02-02T17:06:05.575Z,64.00
2018-02-02T17:08:33.179Z,63.70
2018-02-02T17:11:00.756Z,63.70
2018-02-02T17:13:28.351Z,63.80
2018-02-02T17:15:55.956Z,63.70
2018-02-02T17:18:27.106Z,63.60
2018-02-02T17:20:55.488Z,63.80
2018-02-02T17:23:23.089Z,63.70
2018-02-02T17:25:50.679Z,63.70
2018-02-02T17:28:21.496Z,63.70
2018-02-02T17:30:49.056Z,64.00
2018-02-02T17:33:16.674Z,63.90
2018-02-02T17:35:44.309Z,64.10
2018-02-02T17:38:12.705Z,64.50
2018-02-02T17:40:41.257Z,64.40
2018-02-02T17:43:08.863Z,65.00
2018-02-02T17:45:36.507Z,64.90
2018-02-02T17:48:04.186Z,64.70
2018-02-02T17:50:31.805Z,64.20
2018-02-02T17:52:59.415Z,64.40
2018-02-02T17:55:27.022Z,64.50
2018-02-02T17:57:54.619Z,64.40
2018-02-02T18:00:25.735Z,64.40
2018-02-02T18:02:56.020Z,64.60
2018-02-02T18:05:23.643Z,64.50
2018-02-02T18:07:51.265Z,65.20
2018-02-02T18:10:18.850Z,65.10
2018-02-02T18:12:46.468Z,64.90
2018-02-02T18:15:14.098Z,65.00
2018-02-02T18:17:42.690Z,65.30
2018-02-02T18:20:10.302Z,65.10
2018-02-02T18:22:38.688Z,65.00
2018-02-02T18:25:11.786Z,65.00
2018-02-02T18:27:39.367Z,65.30
2018-02-02T18:30:06.955Z,65.10
2018-02-02T18:32:34.559Z,65.30
2018-02-02T18:35:02.919Z,66.00
2018-02-02T18:37:30.539Z,66.00
2018-02-02T18:39:58.118Z,66.50
2018-02-02T18:42:25.698Z,66.60
2018-02-02T18:44:53.255Z,66.70
2018-02-02T18:47:20.827Z,66.80
2018-02-02T18:49:49.199Z,67.40
2018-02-02T18:52:17.580Z,67.60
2018-02-02T18:54:45.895Z,67.90
2018-02-02T18:57:13.487Z,67.70
2018-02-02T18:59:41.095Z,67.60
2018-02-02T19:02:08.680Z,67.60
2018-02-02T19:04:37.059Z,68.30
2018-02-02T19:07:04.656Z,68.10
2018-02-02T19:09:32.263Z,68.10
2018-02-02T19:11:59.826Z,67.90
2018-02-02T19:14:27.426Z,67.90
2018-02-02T19:16:55.037Z,67.50
2018-02-02T19:19:26.153Z,67.20
2018-02-02T19:21:59.070Z,66.90
2018-02-02T19:24:26.729Z,67.40
2018-02-02T19:26:54.344Z,67.40
2018-02-02T19:29:21.993Z,68.10
2018-02-02T19:31:49.652Z,68.30
2018-02-02T19:34:17.267Z,68.20
2018-02-02T19:36:44.887Z,68.30
2018-02-02T19:39:12.504Z,68.50
2018-02-02T19:41:40.075Z,67.90
2018-02-02T19:44:07.664Z,67.80
2018-02-02T19:46:35.263Z,67.80
2018-02-02T19:49:02.855Z,67.60
2018-02-02T19:51:30.502Z,67.60
2018-02-02T19:53:58.125Z,67.70
2018-02-02T19:56:25.795Z,67.60
2018-02-02T19:58:53.349Z,68.00
2018-02-02T20:01:20.942Z,67.50
2018-02-02T20:03:48.578Z,67.20
2018-02-02T20:06:16.943Z,66.10
2018-02-02T20:08:44.523Z,66.10
2018-02-02T20:11:12.111Z,66.20
2018-02-02T20:13:39.783Z,65.40
2018-02-02T20:16:07.387Z,65.60
2018-02-02T20:18:35.760Z,65.10
2018-02-02T20:21:03.366Z,65.10
2018-02-02T20:23:30.981Z,65.00
2018-02-02T20:26:03.240Z,65.00
2018-02-02T20:28:30.866Z,65.20
2018-02-02T20:30:58.489Z,64.70
2018-02-02T20:33:26.091Z,64.50
2018-02-02T20:35:53.656Z,65.30
2018-02-02T20:38:21.253Z,65.30
2018-02-02T20:40:49.633Z,66.40
2018-02-02T20:43:17.987Z,66.60
2018-02-02T20:45:45.575Z,66.70
2018-02-02T20:48:13.228Z,66.70
2018-02-02T20:50:40.844Z,66.00
2018-02-02T20:53:08.464Z,65.40
2018-02-02T20:55:36.860Z,65.60
2018-02-02T20:58:04.497Z,65.60
2018-02-02T21:00:32.843Z,65.90
2018-02-02T21:03:00.472Z,65.90
2018-02-02T21:05:28.072Z,65.80
2018-02-02T21:07:55.650Z,66.10
2018-02-02T21:10:23.256Z,66.30
2018-02-02T21:12:50.850Z,66.40
2018-02-02T21:15:18.463Z,66.50
2018-02-02T21:17:53.080Z,66.90
2018-02-02T21:20:20.721Z,66.70
2018-02-02T21:22:48.301Z,67.00
2018-02-02T21:25:15.976Z,67.20
2018-02-02T21:27:43.584Z,67.00
2018-02-02T21:30:11.186Z,67.10
2018-02-02T21:32:38.771Z,67.20
2018-02-02T21:35:06.376Z,67.10
2018-02-02T21:37:33.997Z,67.10
2018-02-02T21:40:01.615Z,67.30
2018-02-02T21:42:29.959Z,67.90
2018-02-02T21:44:57.584Z,67.90
2018-02-02T21:47:25.203Z,67.90
2018-02-02T21:49:52.840Z,67.90
2018-02-02T21:52:20.467Z,68.00
2018-02-02T21:54:48.083Z,68.10
2018-02-02T21:57:15.707Z,68.40
2018-02-02T21:59:43.295Z,68.30
2018-02-02T22:02:10.913Z,68.60
2018-02-02T22:04:40.494Z,69.20
2018-02-02T22:07:08.127Z,68.90
2018-02-02T22:09:35.762Z,68.70
2018-02-02T22:12:03.334Z,69.00
2018-02-02T22:14:30.956Z,68.90
2018-02-02T22:16:58.535Z,69.70
2018-02-02T22:19:26.168Z,69.20
2018-02-02T22:21:53.730Z,69.30
2018-02-02T22:24:21.347Z,69.80
2018-02-02T22:26:48.942Z,69.20
2018-02-02T22:29:16.571Z,69.40
2018-02-02T22:31:44.151Z,69.20
2018-02-02T22:34:11.731Z,69.10
2018-02-02T22:36:39.354Z,68.90
2018-02-02T22:39:06.975Z,68.70
2018-02-02T22:41:34.568Z,68.60
2018-02-02T22:44:02.197Z,68.90
2018-02-02T22:46:29.798Z,68.60
2018-02-02T22:48:57.416Z,68.20
2018-02-02T22:51:25.035Z,67.40
2018-02-02T22:53:52.587Z,67.20
2018-02-02T22:56:20.215Z,67.20
2018-02-02T22:58:47.776Z,66.80
2018-02-02T23:01:15.422Z,66.70
2018-02-02T23:03:43.022Z,66.40
2018-02-02T23:06:10.638Z,66.40
2018-02-02T23:08:38.217Z,66.30
2018-02-02T23:11:05.818Z,66.40
2018-02-02T23:13:34.183Z,65.90
2018-02-02T23:16:01.813Z,65.90
2018-02-02T23:18:30.171Z,65.70
2018-02-02T23:20:57.748Z,65.70
2018-02-02T23:23:25.330Z,65.50
2018-02-02T23:25:52.950Z,65.30
2018-02-02T23:28:20.535Z,65.30
2018-02-02T23:30:48.143Z,64.80
2018-02-02T23:33:16.493Z,64.90
2018-02-02T23:35:44.049Z,64.80
2018-02-02T23:38:11.643Z,64.00
2018-02-02T23:40:39.232Z,63.60
2018-02-02T23:43:06.869Z,63.50
2018-02-02T23:45:34.461Z,64.00
2018-02-02T23:48:02.052Z,64.40
2018-02-02T23:50:29.626Z,64.60
2018-02-02T23:52:58.019Z,65.00
2018-02-02T23:55:25.631Z,64.90
2018-02-02T23:57:53.240Z,65.20
